createdAt,value
2023-05-13T04:22:56.692Z,3.40
2023-05-13T04:25:23.935Z,4.00
2023-05-13T04:27:51.086Z,3.10
2023-05-13T04:30:25.490Z,4.10
2023-05-13T04:32:54.311Z,5.60
2023-05-13T04:35:21.419Z,4.10
2023-05-13T04:37:52.356Z,2.90
2023-05-13T04:40:20.181Z,4.90
2023-05-13T04:42:54.504Z,3.20
2023-05-13T04:45:25.315Z,3.10
2023-05-13T04:47:52.600Z,4.00
2023-05-13T04:50:19.929Z,2.80
2023-05-13T04:52:48.653Z,4.20
2023-05-13T04:55:17.085Z,5.20
2023-05-13T04:57:43.976Z,4.20
2023-05-13T05:00:11.667Z,3.50
2023-05-13T05:02:40.022Z,3.20
2023-05-13T05:05:07.110Z,6.20
2023-05-13T05:07:34.314Z,6.40
2023-05-13T05:10:01.969Z,2.90
2023-05-13T05:12:32.332Z,4.70
2023-05-13T05:14:59.213Z,4.30
2023-05-13T05:17:32.652Z,3.40
2023-05-13T05:20:02.788Z,3.20
2023-05-13T05:22:29.757Z,7.60
2023-05-13T05:24:56.938Z,3.80
2023-05-13T05:27:25.283Z,5.10
2023-05-13T05:29:52.315Z,3.30
2023-05-13T05:32:19.581Z,3.70
2023-05-13T05:34:46.465Z,2.90
2023-05-13T05:37:13.329Z,2.80
2023-05-13T05:39:41.842Z,3.00
2023-05-13T05:42:08.846Z,3.00
2023-05-13T05:44:36.240Z,2.90
2023-05-13T05:47:03.342Z,2.30
2023-05-13T05:49:30.838Z,4.30
2023-05-13T05:51:58.610Z,4.30
2023-05-13T05:54:27.766Z,4.60
2023-05-13T05:56:55.358Z,2.50
2023-05-13T05:59:22.571Z,3.50
2023-05-13T06:01:50.214Z,6.00
2023-05-13T06:04:17.548Z,3.10
2023-05-13T06:06:45.718Z,3.50
2023-05-13T06:09:13.546Z,3.70
2023-05-13T06:11:40.611Z,2.70
2023-05-13T06:14:10.622Z,3.40
2023-05-13T06:16:37.908Z,2.30
2023-05-13T06:19:06.430Z,3.90
2023-05-13T06:21:34.721Z,4.20
2023-05-13T06:24:03.253Z,2.00
2023-05-13T06:26:31.943Z,4.80
2023-05-13T06:29:00.137Z,4.40
2023-05-13T06:31:27.768Z,4.80
2023-05-13T06:33:54.615Z,2.30
2023-05-13T06:36:26.384Z,4.70
2023-05-13T06:38:53.917Z,3.30
2023-05-13T06:41:22.834Z,3.40
2023-05-13T06:43:50.749Z,3.60
2023-05-13T06:46:21.684Z,3.40
2023-05-13T06:48:52.404Z,4.30
2023-05-13T06:51:19.395Z,3.30
2023-05-13T06:53:46.388Z,1.60
2023-05-13T06:56:13.556Z,3.10
2023-05-13T06:58:40.620Z,11.30
2023-05-13T07:01:09.005Z,2.10
2023-05-13T07:03:36.627Z,2.50
2023-05-13T07:06:04.518Z,4.10
2023-05-13T07:08:31.385Z,2.40
2023-05-13T07:10:58.637Z,1.80
2023-05-13T07:13:27.650Z,5.10
2023-05-13T07:15:55.232Z,1.60
2023-05-13T07:18:22.590Z,2.60
2023-05-13T07:20:49.485Z,3.30
2023-05-13T07:23:16.371Z,2.40
2023-05-13T07:25:43.831Z,2.00
2023-05-13T07:28:10.881Z,2.50
2023-05-13T07:30:40.284Z,5.40
2023-05-13T07:33:07.289Z,2.20
2023-05-13T07:35:34.157Z,1.80
2023-05-13T07:38:01.136Z,10.60
2023-05-13T07:40:28.021Z,2.20
2023-05-13T07:42:54.866Z,1.90
2023-05-13T07:45:22.379Z,1.70
2023-05-13T07:47:49.840Z,1.70
2023-05-13T07:50:17.048Z,1.10
2023-05-13T07:52:44.274Z,4.40
2023-05-13T07:55:11.557Z,1.90
2023-05-13T07:57:38.431Z,1.50
2023-05-13T08:00:06.340Z,4.50
2023-05-13T08:02:41.478Z,3.90
2023-05-13T08:05:08.589Z,2.50
2023-05-13T08:07:35.574Z,2.20
2023-05-13T08:10:02.686Z,2.00
2023-05-13T08:12:29.588Z,3.30
2023-05-13T08:14:56.594Z,2.70
2023-05-13T08:17:23.570Z,2.30
2023-05-13T08:19:50.636Z,1.30
2023-05-13T08:22:17.479Z,1.70
2023-05-13T08:24:45.547Z,3.70
2023-05-13T08:27:13.214Z,1.30
2023-05-13T08:29:40.920Z,4.40
2023-05-13T08:32:07.852Z,2.30
2023-05-13T08:34:35.588Z,1.90
2023-05-13T08:37:02.584Z,5.40
2023-05-13T08:39:29.546Z,5.40
2023-05-13T08:41:57.823Z,3.20
2023-05-13T08:44:29.279Z,3.60
2023-05-13T08:47:11.684Z,4.20
2023-05-13T08:49:38.475Z,2.40
2023-05-13T08:52:06.145Z,2.20
2023-05-13T08:54:32.966Z,1.70
2023-05-13T09:02:55.050Z,2.40
2023-05-13T09:05:22.351Z,3.20
2023-05-13T09:07:49.655Z,1.00
2023-05-13T09:10:16.917Z,3.60
2023-05-13T09:12:47.014Z,2.20
2023-05-13T09:15:26.606Z,1.10
2023-05-13T09:17:59.762Z,3.80
2023-05-13T09:20:26.927Z,3.00
2023-05-13T09:23:17.883Z,2.00
2023-05-13T09:25:44.916Z,2.50
2023-05-13T09:28:14.459Z,1.30
2023-05-13T09:30:46.214Z,2.80
2023-05-13T09:33:19.970Z,0.80
2023-05-13T09:35:52.236Z,1.80
2023-05-13T09:38:20.705Z,3.60
2023-05-13T09:41:00.156Z,4.70
2023-05-13T09:43:29.031Z,0.80
2023-05-13T09:45:57.458Z,2.40
2023-05-13T09:48:28.578Z,0.80
2023-05-13T09:50:58.004Z,1.30
2023-05-13T09:53:28.507Z,1.60
2023-05-13T09:55:56.913Z,2.10
2023-05-13T09:58:25.431Z,0.70
2023-05-13T10:00:53.352Z,1.80
2023-05-13T10:03:20.725Z,1.00
2023-05-13T10:05:48.520Z,1.00
2023-05-13T10:08:15.937Z,1.40
2023-05-13T10:10:47.948Z,1.60
2023-05-13T10:13:16.014Z,0.80
2023-05-13T10:15:50.493Z,1.60
2023-05-13T10:18:19.878Z,1.20
2023-05-13T10:20:47.468Z,2.90
2023-05-13T10:23:16.370Z,2.40
2023-05-13T10:25:43.316Z,1.90
2023-05-13T10:28:10.703Z,2.00
2023-05-13T10:30:39.224Z,1.30
2023-05-13T10:33:06.309Z,2.70
2023-05-13T10:35:38.515Z,1.90
2023-05-13T10:38:30.060Z,3.30
2023-05-13T10:41:15.182Z,3.00
2023-05-13T10:43:42.134Z,1.50
2023-05-13T10:46:12.531Z,1.30
2023-05-13T10:48:41.648Z,2.60
2023-05-13T10:51:09.700Z,1.60
2023-05-13T10:53:44.262Z,1.40
2023-05-13T10:56:12.149Z,1.20
2023-05-13T10:58:39.962Z,2.10
2023-05-13T11:01:28.469Z,1.30
2023-05-13T11:03:57.280Z,2.50
2023-05-13T11:06:29.337Z,3.80
2023-05-13T11:08:56.501Z,1.80
2023-05-13T11:11:23.567Z,1.10
2023-05-13T11:14:03.987Z,1.90
2023-05-13T11:16:31.060Z,3.80
2023-05-13T11:18:58.255Z,2.90
2023-05-13T11:21:41.187Z,2.90
2023-05-13T11:24:08.247Z,1.00
2023-05-13T11:26:51.746Z,1.00
2023-05-13T11:29:37.103Z,2.10
2023-05-13T11:32:05.166Z,2.40
2023-05-13T11:34:32.328Z,2.80
2023-05-13T11:37:08.889Z,1.50
2023-05-13T11:39:36.375Z,2.20
2023-05-13T11:42:08.698Z,0.70
2023-05-13T11:44:36.074Z,1.00
2023-05-13T11:47:06.344Z,1.60
2023-05-13T11:49:43.426Z,1.50
2023-05-13T11:52:14.167Z,2.80
2023-05-13T11:54:42.666Z,1.10
2023-05-13T11:57:16.613Z,1.00
2023-05-13T11:59:54.337Z,2.70
2023-05-13T12:02:22.717Z,2.10
2023-05-13T12:04:51.007Z,1.40
2023-05-13T12:07:24.849Z,2.20
2023-05-13T12:09:52.692Z,3.30
2023-05-13T12:12:19.842Z,1.50
2023-05-13T12:14:50.222Z,3.20
2023-05-13T12:17:18.177Z,2.50
2023-05-13T12:20:12.112Z,3.40
2023-05-13T12:22:45.398Z,2.40
2023-05-13T12:25:48.012Z,1.20
2023-05-13T12:28:21.679Z,1.70
2023-05-13T12:30:56.831Z,2.20
2023-05-13T12:33:24.805Z,1.40
2023-05-13T12:35:53.417Z,5.00
2023-05-13T12:38:24.538Z,2.20
2023-05-13T12:40:51.676Z,2.90
2023-05-13T12:43:19.748Z,3.00
2023-05-13T12:45:47.384Z,2.80
2023-05-13T12:48:14.835Z,1.90
2023-05-13T12:50:41.661Z,5.80
2023-05-13T12:53:08.521Z,1.70
2023-05-13T12:55:40.094Z,1.10
2023-05-13T12:58:11.022Z,2.90
2023-05-13T13:00:38.133Z,2.50
2023-05-13T13:03:05.193Z,2.10
2023-05-13T13:05:32.105Z,4.80
2023-05-13T13:08:01.140Z,1.90
2023-05-13T13:10:28.557Z,2.40
2023-05-13T13:12:55.349Z,3.30
2023-05-13T13:15:22.559Z,2.00
2023-05-13T13:17:49.645Z,4.10
2023-05-13T13:20:16.457Z,1.80
2023-05-13T13:22:43.807Z,3.90
2023-05-13T13:25:11.143Z,2.70
2023-05-13T13:27:38.804Z,2.00
2023-05-13T13:30:06.478Z,1.90
2023-05-13T13:32:35.414Z,3.40
2023-05-13T13:35:05.470Z,2.80
2023-05-13T13:37:32.322Z,2.10
2023-05-13T13:39:59.290Z,3.70
2023-05-13T13:42:40.329Z,2.10
2023-05-13T13:45:11.216Z,4.60
2023-05-13T13:47:38.552Z,1.80
2023-05-13T13:50:06.522Z,3.10
2023-05-13T13:52:33.493Z,5.90
2023-05-13T13:55:00.712Z,3.10
2023-05-13T13:57:27.682Z,5.50
2023-05-13T13:59:55.196Z,2.00
2023-05-13T14:02:22.243Z,2.90
2023-05-13T14:04:49.180Z,1.90
2023-05-13T14:07:16.176Z,2.50
2023-05-13T14:09:43.149Z,2.20
2023-05-13T14:12:10.047Z,3.10
2023-05-13T14:14:36.751Z,3.20
2023-05-13T14:17:04.248Z,1.50
2023-05-13T14:19:31.164Z,2.30
2023-05-13T14:21:58.297Z,2.90
2023-05-13T14:24:25.076Z,4.30
2023-05-13T14:26:51.963Z,1.30
2023-05-13T14:29:18.984Z,1.00
2023-05-13T14:31:45.877Z,4.30
2023-05-13T14:34:12.619Z,3.40
2023-05-13T14:36:40.992Z,2.60
2023-05-13T14:39:10.573Z,2.90
2023-05-13T14:41:37.557Z,3.80
2023-05-13T14:44:04.614Z,2.80
2023-05-13T14:46:33.945Z,1.10
2023-05-13T14:49:01.822Z,1.90
2023-05-13T14:51:28.731Z,1.70
2023-05-13T14:53:55.606Z,2.80
2023-05-13T14:56:22.452Z,3.10
2023-05-13T14:58:50.076Z,2.80
2023-05-13T15:01:17.427Z,1.60
2023-05-13T15:03:44.205Z,2.30
2023-05-13T15:06:11.147Z,2.60
2023-05-13T15:08:38.049Z,2.40
2023-05-13T15:11:08.815Z,2.90
2023-05-13T15:13:36.930Z,3.60
2023-05-13T15:16:04.001Z,2.90
2023-05-13T15:18:31.303Z,2.60
2023-05-13T15:20:58.160Z,2.40
2023-05-13T15:23:25.046Z,2.40
2023-05-13T15:25:52.290Z,2.20
2023-05-13T15:28:19.052Z,3.40
2023-05-13T15:30:45.844Z,2.10
2023-05-13T15:33:12.776Z,2.40
2023-05-13T15:35:39.604Z,4.80
2023-05-13T15:38:06.331Z,3.50
2023-05-13T15:40:33.319Z,4.30
2023-05-13T15:43:00.387Z,4.10
2023-05-13T15:45:27.350Z,3.40
2023-05-13T15:47:54.244Z,4.10
2023-05-13T15:50:21.375Z,6.50
2023-05-13T15:52:48.248Z,3.40
2023-05-13T15:55:15.170Z,2.80
2023-05-13T15:57:42.022Z,5.10
2023-05-13T16:00:09.689Z,4.00
2023-05-13T16:02:39.429Z,2.90
2023-05-13T16:05:07.115Z,2.70
2023-05-13T16:07:33.953Z,6.60
2023-05-13T16:10:01.843Z,3.70
2023-05-13T16:12:32.329Z,2.10
2023-05-13T16:14:59.183Z,5.00
2023-05-13T16:17:25.962Z,5.00
2023-05-13T16:19:52.915Z,6.30
2023-05-13T16:22:33.698Z,3.00
2023-05-13T16:25:01.624Z,3.40
2023-05-13T16:27:28.847Z,3.50
2023-05-13T16:29:57.650Z,3.90
2023-05-13T16:32:24.818Z,4.50
2023-05-13T16:34:52.061Z,2.50
2023-05-13T16:37:18.818Z,3.50
2023-05-13T16:39:45.811Z,4.10
2023-05-13T16:42:12.715Z,5.10
2023-05-13T16:44:40.703Z,3.50
2023-05-13T16:47:09.183Z,3.80
2023-05-13T16:49:36.522Z,3.00
2023-05-13T16:52:06.737Z,8.40
2023-05-13T16:54:33.717Z,2.80
2023-05-13T16:57:01.727Z,6.80
2023-05-13T16:59:28.524Z,4.30
2023-05-13T17:01:56.130Z,4.40
2023-05-13T17:04:22.915Z,10.10
2023-05-13T17:06:51.055Z,4.10
2023-05-13T17:09:17.863Z,3.10
2023-05-13T17:11:45.045Z,5.40
2023-05-13T17:14:11.772Z,6.30
2023-05-13T17:16:39.243Z,4.90
2023-05-13T17:19:06.102Z,5.70
2023-05-13T17:21:32.893Z,5.00
2023-05-13T17:23:59.624Z,9.00
2023-05-13T17:26:26.515Z,3.00
2023-05-13T17:28:53.893Z,4.10
2023-05-13T17:31:20.701Z,5.10
2023-05-13T17:33:47.739Z,3.00
2023-05-13T17:36:15.143Z,4.40
2023-05-13T17:38:42.012Z,5.00
2023-05-13T17:41:08.853Z,4.10
2023-05-13T17:43:36.421Z,4.70
2023-05-13T17:46:03.887Z,5.90
2023-05-13T17:48:31.771Z,5.20
2023-05-13T17:50:59.135Z,6.00
2023-05-13T17:53:27.832Z,9.10
2023-05-13T17:55:54.724Z,7.40
2023-05-13T17:58:21.565Z,5.00
2023-05-13T18:00:48.938Z,6.80
2023-05-13T18:03:16.399Z,7.10
2023-05-13T18:05:43.404Z,10.10
2023-05-13T18:08:10.520Z,7.00
2023-05-13T18:10:37.392Z,6.50
2023-05-13T18:13:04.361Z,11.20
2023-05-13T18:15:31.143Z,7.50
2023-05-13T18:17:57.875Z,11.90
2023-05-13T18:20:24.796Z,13.50
2023-05-13T18:22:52.153Z,8.90
2023-05-13T18:25:19.019Z,14.90
2023-05-13T18:27:45.884Z,9.90
2023-05-13T18:30:13.069Z,11.00
2023-05-13T18:32:41.294Z,8.60
2023-05-13T18:35:09.346Z,12.10
2023-05-13T18:37:36.955Z,11.00
2023-05-13T18:40:04.460Z,8.70
2023-05-13T18:42:31.410Z,9.00
2023-05-13T18:44:58.857Z,10.60
2023-05-13T18:47:27.715Z,9.70
2023-05-13T18:49:54.677Z,12.10
2023-05-13T18:52:21.549Z,9.60
2023-05-13T18:54:48.498Z,9.50
2023-05-13T18:57:16.803Z,11.00
2023-05-13T18:59:43.749Z,8.70
2023-05-13T19:02:10.940Z,9.60
2023-05-13T19:04:38.315Z,12.00
2023-05-13T19:07:07.385Z,21.40
2023-05-13T19:09:36.396Z,9.60
2023-05-13T19:12:03.384Z,10.50
2023-05-13T19:14:30.126Z,10.20
2023-05-13T19:16:57.067Z,9.40
2023-05-13T19:19:24.378Z,11.40
2023-05-13T19:21:51.400Z,12.60
2023-05-13T19:24:18.465Z,11.40
2023-05-13T19:26:45.242Z,13.50
2023-05-13T19:29:13.012Z,14.60
2023-05-13T19:31:40.175Z,9.00
2023-05-13T19:34:10.203Z,10.20
2023-05-13T19:36:40.890Z,13.00
2023-05-13T19:39:10.564Z,16.20
2023-05-13T19:41:39.751Z,12.80
2023-05-13T19:44:09.838Z,16.70
2023-05-13T19:46:39.170Z,14.30
2023-05-13T19:49:09.962Z,18.00
2023-05-13T19:51:39.230Z,16.00
2023-05-13T19:54:11.311Z,18.30
2023-05-13T19:56:42.350Z,14.40
2023-05-13T19:59:13.510Z,16.40
2023-05-13T20:01:45.316Z,19.90
2023-05-13T20:04:14.411Z,19.30
2023-05-13T20:06:45.350Z,15.20
2023-05-13T20:09:16.288Z,15.90
2023-05-13T20:11:47.276Z,11.30
2023-05-13T20:14:27.450Z,16.70
2023-05-13T20:16:57.274Z,14.00
2023-05-13T20:19:28.333Z,11.20
2023-05-13T20:21:58.647Z,16.70
2023-05-13T20:24:28.268Z,18.10
2023-05-13T20:26:59.302Z,12.70
2023-05-13T20:29:34.825Z,19.20
2023-05-13T20:32:05.540Z,14.00
2023-05-13T20:40:38.949Z,12.20
2023-05-13T20:43:07.640Z,12.30
2023-05-13T20:45:39.217Z,12.60
2023-05-13T20:48:06.632Z,15.50
2023-05-13T20:50:33.479Z,15.20
2023-05-13T20:53:00.714Z,11.10
2023-05-13T20:55:27.728Z,12.50
2023-05-13T20:57:54.639Z,15.20
2023-05-13T21:00:22.046Z,13.00
2023-05-13T21:02:50.482Z,12.00
2023-05-13T21:05:17.636Z,11.70
2023-05-13T21:07:44.440Z,12.00
2023-05-13T21:10:11.324Z,11.10
2023-05-13T21:12:38.119Z,12.90
2023-05-13T21:15:05.517Z,14.30
2023-05-13T21:17:33.664Z,11.20
2023-05-13T21:20:00.558Z,16.30
